createdAt,value
2022-09-25T00:00:43.690Z,12.90
2022-09-25T00:03:31.147Z,12.80
2022-09-25T00:06:20.068Z,12.80
2022-09-25T00:09:10.145Z,12.80
2022-09-25T00:11:56.527Z,12.80
2022-09-25T00:14:44.283Z,12.80
2022-09-25T00:17:30.533Z,12.70
2022-09-25T00:20:19.987Z,12.70
2022-09-25T00:23:06.122Z,12.70
2022-09-25T00:25:54.385Z,12.70
2022-09-25T00:28:41.386Z,12.60
2022-09-25T00:31:29.699Z,12.70
2022-09-25T00:34:16.074Z,12.50
2022-09-25T00:37:02.489Z,12.60
2022-09-25T00:39:48.772Z,12.50
2022-09-25T00:42:36.486Z,12.50
2022-09-25T00:45:23.455Z,12.50
2022-09-25T00:48:14.810Z,12.50
2022-09-25T00:51:02.001Z,12.50
2022-09-25T00:53:49.823Z,12.40
2022-09-25T00:56:42.334Z,12.40
2022-09-25T00:59:32.262Z,12.40
2022-09-25T01:02:24.864Z,12.40
2022-09-25T01:05:15.793Z,12.50
2022-09-25T01:08:05.925Z,12.50
2022-09-25T01:10:52.211Z,12.50
2022-09-25T01:13:38.897Z,12.50
2022-09-25T01:16:32.511Z,12.50
2022-09-25T01:19:32.940Z,12.50
2022-09-25T01:22:35.857Z,12.40
2022-09-25T01:25:35.400Z,12.40
2022-09-25T01:28:42.778Z,12.40
2022-09-25T01:31:35.433Z,12.30
2022-09-25T01:34:27.127Z,12.10
2022-09-25T01:37:22.234Z,12.10
2022-09-25T01:40:15.652Z,12.10
2022-09-25T01:43:09.290Z,12.20
2022-09-25T01:46:01.301Z,12.30
2022-09-25T01:48:54.751Z,12.40
2022-09-25T01:51:45.882Z,12.50
2022-09-25T01:54:35.925Z,12.60
2022-09-25T01:57:24.928Z,12.40
2022-09-25T02:00:16.355Z,12.30
2022-09-25T02:03:12.304Z,12.40
2022-09-25T02:06:03.227Z,12.30
2022-09-25T02:08:53.896Z,12.40
2022-09-25T02:11:43.717Z,12.50
2022-09-25T02:14:35.935Z,12.60
2022-09-25T02:17:47.207Z,12.60
2022-09-25T02:20:41.855Z,12.60
2022-09-25T02:23:36.989Z,12.40
2022-09-25T02:26:27.309Z,12.20
2022-09-25T02:29:15.400Z,12.30
2022-09-25T02:32:05.904Z,12.40
2022-09-25T02:34:53.283Z,12.60
2022-09-25T02:37:41.006Z,12.70
2022-09-25T02:40:34.869Z,12.70
2022-09-25T02:43:36.928Z,12.70
2022-09-25T02:46:34.058Z,12.70
2022-09-25T02:49:26.606Z,12.70
2022-09-25T02:52:17.466Z,12.80
2022-09-25T02:55:11.078Z,12.80
2022-09-25T02:58:01.239Z,12.80
2022-09-25T03:00:51.529Z,12.80
2022-09-25T03:03:39.328Z,12.90
2022-09-25T03:06:26.782Z,12.90
2022-09-25T03:09:13.711Z,12.80
2022-09-25T03:12:04.399Z,12.90
2022-09-25T03:14:50.926Z,12.80
2022-09-25T03:17:39.685Z,12.80
2022-09-25T03:20:25.828Z,12.80
2022-09-25T03:23:12.645Z,12.80
2022-09-25T03:25:59.467Z,12.90
2022-09-25T03:28:47.965Z,12.90
2022-09-25T03:31:34.457Z,12.90
2022-09-25T03:34:21.075Z,12.90
2022-09-25T03:37:07.536Z,12.90
2022-09-25T03:39:54.139Z,12.80
2022-09-25T03:42:40.373Z,12.90
2022-09-25T03:45:28.240Z,12.90
2022-09-25T03:48:14.639Z,12.90
2022-09-25T03:51:01.244Z,12.80
2022-09-25T03:53:48.323Z,12.90
2022-09-25T03:56:34.912Z,12.90
2022-09-25T03:59:21.096Z,12.90
2022-09-25T04:02:08.932Z,12.70
2022-09-25T04:04:55.967Z,12.60
2022-09-25T04:07:42.645Z,12.60
2022-09-25T04:10:28.979Z,12.60
2022-09-25T04:13:17.031Z,12.70
2022-09-25T04:16:06.360Z,12.70
2022-09-25T04:18:54.302Z,12.80
2022-09-25T04:21:40.599Z,12.80
2022-09-25T04:24:44.395Z,12.90
2022-09-25T04:27:30.946Z,12.90
2022-09-25T04:30:17.366Z,12.90
2022-09-25T04:33:21.214Z,12.90
2022-09-25T04:36:09.688Z,12.90
2022-09-25T04:38:56.039Z,12.90
2022-09-25T04:41:43.345Z,13.00
2022-09-25T04:44:31.090Z,12.90
2022-09-25T04:47:17.436Z,12.90
2022-09-25T04:50:03.730Z,13.00
2022-09-25T04:52:51.527Z,12.90
2022-09-25T04:55:39.559Z,12.80
2022-09-25T04:58:26.277Z,12.80
2022-09-25T05:01:12.732Z,12.90
2022-09-25T05:03:59.154Z,12.90
2022-09-25T05:06:45.325Z,12.90
2022-09-25T05:09:33.726Z,12.90
2022-09-25T05:12:20.031Z,12.90
2022-09-25T05:15:07.896Z,13.00
2022-09-25T05:18:01.026Z,12.90
2022-09-25T05:20:47.682Z,12.90
2022-09-25T05:23:33.871Z,13.00
2022-09-25T05:26:23.227Z,12.90
2022-09-25T05:29:10.904Z,12.90
2022-09-25T05:31:57.138Z,12.70
2022-09-25T05:34:43.426Z,12.50
2022-09-25T05:37:30.024Z,12.50
2022-09-25T05:40:17.494Z,12.60
2022-09-25T05:43:05.712Z,12.80
2022-09-25T05:45:55.492Z,12.70
2022-09-25T05:48:42.335Z,12.90
2022-09-25T05:51:28.723Z,13.00
2022-09-25T05:54:15.214Z,13.00
2022-09-25T05:57:01.599Z,13.10
2022-09-25T05:59:49.618Z,13.10
2022-09-25T06:02:36.079Z,13.20
2022-09-25T06:05:22.663Z,13.20
2022-09-25T06:08:09.523Z,13.20
2022-09-25T06:10:56.304Z,13.30
2022-09-25T06:13:48.544Z,13.20
2022-09-25T06:16:39.815Z,13.30
2022-09-25T06:19:29.016Z,13.40
2022-09-25T06:22:15.578Z,13.40
2022-09-25T06:25:03.084Z,13.30
2022-09-25T06:27:49.660Z,13.40
2022-09-25T06:30:38.179Z,13.40
2022-09-25T06:33:25.995Z,13.50
2022-09-25T06:36:12.754Z,13.60
2022-09-25T06:38:59.405Z,13.50
2022-09-25T06:41:45.686Z,13.50
2022-09-25T06:44:32.042Z,13.60
2022-09-25T06:47:20.836Z,13.60
2022-09-25T06:50:12.297Z,13.60
2022-09-25T06:52:59.714Z,13.70
2022-09-25T06:55:46.170Z,13.60
2022-09-25T06:58:32.504Z,13.60
2022-09-25T07:01:19.136Z,13.60
2022-09-25T07:04:04.775Z,13.60
2022-09-25T07:06:56.503Z,13.70
2022-09-25T07:09:42.712Z,13.80
2022-09-25T07:12:29.310Z,13.80
2022-09-25T07:15:16.511Z,13.80
2022-09-25T07:18:03.261Z,13.90
2022-09-25T07:20:49.977Z,13.90
2022-09-25T07:23:38.389Z,13.80
2022-09-25T07:26:27.394Z,13.90
2022-09-25T07:29:13.845Z,13.90
2022-09-25T07:32:00.534Z,13.90
2022-09-25T07:34:47.516Z,13.90
2022-09-25T07:37:33.874Z,13.90
2022-09-25T07:40:21.558Z,14.00
2022-09-25T07:43:07.875Z,14.10
2022-09-25T07:45:54.455Z,14.10
2022-09-25T07:48:40.975Z,14.10
2022-09-25T07:51:27.630Z,14.20
2022-09-25T07:54:13.982Z,14.20
2022-09-25T07:57:01.716Z,14.20
2022-09-25T07:59:47.998Z,14.40
2022-09-25T08:02:35.219Z,14.40
2022-09-25T08:05:21.967Z,14.40
2022-09-25T08:08:08.332Z,14.50
2022-09-25T08:10:55.902Z,14.50
2022-09-25T08:13:44.472Z,14.60
2022-09-25T08:16:30.899Z,14.70
2022-09-25T08:19:18.416Z,14.90
2022-09-25T08:22:04.692Z,14.80
2022-09-25T08:24:50.994Z,15.00
2022-09-25T08:27:40.807Z,15.10
2022-09-25T08:30:29.249Z,15.10
2022-09-25T08:33:16.137Z,15.20
2022-09-25T08:36:04.538Z,15.30
2022-09-25T08:38:51.004Z,15.40
2022-09-25T08:41:46.832Z,15.40
2022-09-25T08:44:38.522Z,15.60
2022-09-25T08:47:45.975Z,15.70
2022-09-25T08:50:33.233Z,15.90
2022-09-25T08:53:25.101Z,16.20
2022-09-25T08:56:17.779Z,16.40
2022-09-25T08:59:10.656Z,16.50
2022-09-25T09:02:00.660Z,16.60
2022-09-25T09:04:51.819Z,16.80
2022-09-25T09:07:42.954Z,16.90
2022-09-25T09:10:33.513Z,17.00
2022-09-25T09:13:27.363Z,17.00
2022-09-25T09:16:22.403Z,17.10
2022-09-25T09:19:10.551Z,17.20
2022-09-25T09:22:08.610Z,17.20
2022-09-25T09:25:01.235Z,17.20
2022-09-25T09:28:07.571Z,17.30
2022-09-25T09:31:01.409Z,17.40
2022-09-25T09:33:54.615Z,17.50
2022-09-25T09:36:47.642Z,17.70
2022-09-25T09:39:40.137Z,17.90
2022-09-25T09:42:34.310Z,18.10
2022-09-25T09:45:28.234Z,18.30
2022-09-25T09:48:22.139Z,18.50
2022-09-25T09:51:14.538Z,18.80
2022-09-25T09:54:05.762Z,19.00
2022-09-25T09:56:55.678Z,19.10
2022-09-25T09:59:48.029Z,19.30
2022-09-25T10:02:40.836Z,19.50
2022-09-25T10:05:31.420Z,19.50
2022-09-25T10:08:18.323Z,19.50
2022-09-25T10:11:11.315Z,19.50
2022-09-25T10:14:00.665Z,19.30
2022-09-25T10:16:48.536Z,19.30
2022-09-25T10:19:44.980Z,19.10
2022-09-25T10:22:37.919Z,19.10
2022-09-25T10:25:37.085Z,19.10
2022-09-25T10:28:28.966Z,19.20
2022-09-25T10:31:18.563Z,19.30
2022-09-25T10:34:17.603Z,19.30
2022-09-25T10:37:20.186Z,19.40
2022-09-25T10:40:08.730Z,19.50
2022-09-25T10:43:07.858Z,19.50
2022-09-25T10:46:08.039Z,19.50
2022-09-25T10:49:30.944Z,19.80
2022-09-25T10:52:19.283Z,19.80
2022-09-25T10:55:16.384Z,19.90
2022-09-25T10:58:10.290Z,20.00
2022-09-25T11:01:00.487Z,20.30
2022-09-25T11:03:54.230Z,20.50
2022-09-25T11:06:46.265Z,20.70
2022-09-25T11:09:34.295Z,20.60
2022-09-25T11:12:24.526Z,20.50
2022-09-25T11:15:19.581Z,20.30
2022-09-25T11:18:07.102Z,20.10
2022-09-25T11:21:02.154Z,19.90
2022-09-25T11:24:02.826Z,19.90
2022-09-25T11:26:55.355Z,19.90
2022-09-25T11:29:49.629Z,20.00
2022-09-25T11:32:44.381Z,20.00
2022-09-25T11:35:44.214Z,20.00
2022-09-25T11:38:56.107Z,20.20
2022-09-25T11:41:47.797Z,20.30
2022-09-25T11:44:42.215Z,20.20
2022-09-25T11:47:33.140Z,20.20
2022-09-25T11:50:22.594Z,20.10
2022-09-25T11:53:19.809Z,19.90
2022-09-25T11:56:18.462Z,19.80
2022-09-25T11:59:23.564Z,19.70
2022-09-25T12:02:22.211Z,19.60
2022-09-25T12:05:25.062Z,19.40
2022-09-25T12:08:24.289Z,19.30
2022-09-25T12:11:18.981Z,19.30
2022-09-25T12:14:14.237Z,19.30
2022-09-25T12:17:08.843Z,19.30
2022-09-25T12:20:02.834Z,19.30
2022-09-25T12:23:00.352Z,19.30
2022-09-25T12:26:05.553Z,19.30
2022-09-25T12:29:09.855Z,19.20
2022-09-25T12:32:05.099Z,19.20
2022-09-25T12:35:05.161Z,19.20
2022-09-25T12:37:56.447Z,19.20
2022-09-25T12:40:47.231Z,19.30
2022-09-25T12:43:41.210Z,19.40
2022-09-25T12:46:32.778Z,19.60
2022-09-25T12:49:26.537Z,19.60
2022-09-25T12:52:18.935Z,19.60
2022-09-25T12:55:13.555Z,19.80
2022-09-25T12:58:12.079Z,19.80
2022-09-25T13:01:06.037Z,19.80
2022-09-25T13:04:04.866Z,19.50
2022-09-25T13:06:59.684Z,19.30
2022-09-25T13:09:47.889Z,19.20
2022-09-25T13:12:36.535Z,19.30
2022-09-25T13:15:26.135Z,19.30
2022-09-25T13:18:17.696Z,19.20
2022-09-25T13:21:25.387Z,19.20
2022-09-25T13:24:16.091Z,19.20
2022-09-25T13:27:05.001Z,19.20
2022-09-25T13:29:55.566Z,19.20
2022-09-25T13:32:50.367Z,19.10
2022-09-25T13:35:37.194Z,19.10
2022-09-25T13:38:37.336Z,19.10
2022-09-25T13:41:25.855Z,19.30
2022-09-25T13:44:58.941Z,19.10
2022-09-25T13:47:57.178Z,19.20
2022-09-25T13:50:45.303Z,19.30
2022-09-25T13:53:51.242Z,19.30
2022-09-25T13:56:49.413Z,19.30
2022-09-25T13:59:39.875Z,19.30
2022-09-25T14:03:00.893Z,19.40
2022-09-25T14:05:47.778Z,19.40
2022-09-25T14:08:35.583Z,19.50
2022-09-25T14:11:27.035Z,19.50
2022-09-25T14:14:30.562Z,19.50
2022-09-25T14:17:17.679Z,19.30
2022-09-25T14:20:11.054Z,19.20
2022-09-25T14:23:00.283Z,18.90
2022-09-25T14:25:47.612Z,18.90
2022-09-25T14:28:43.547Z,18.90
2022-09-25T14:31:44.263Z,18.80
2022-09-25T14:34:47.364Z,18.70
2022-09-25T14:37:52.354Z,18.50
2022-09-25T14:40:47.770Z,18.40
2022-09-25T14:43:49.628Z,18.40
2022-09-25T14:46:37.650Z,18.20
2022-09-25T14:49:27.992Z,18.00
2022-09-25T14:52:17.139Z,17.80
2022-09-25T14:55:05.700Z,17.70
2022-09-25T14:57:52.773Z,17.70
2022-09-25T15:00:46.150Z,17.60
2022-09-25T15:03:37.941Z,17.50
2022-09-25T15:06:26.622Z,17.40
2022-09-25T15:09:35.879Z,17.30
2022-09-25T15:12:26.477Z,17.30
2022-09-25T15:15:14.507Z,17.20
2022-09-25T15:18:02.475Z,17.10
2022-09-25T15:20:50.163Z,17.00
2022-09-25T15:23:38.509Z,16.80
2022-09-25T15:26:24.924Z,16.80
2022-09-25T15:29:18.054Z,16.80
2022-09-25T15:32:05.954Z,16.70
2022-09-25T15:34:52.257Z,16.70
2022-09-25T15:37:39.759Z,16.70
2022-09-25T15:40:28.748Z,16.80
2022-09-25T15:43:16.123Z,16.90
2022-09-25T15:46:31.095Z,16.90
2022-09-25T15:49:20.918Z,16.90
2022-09-25T15:52:15.415Z,16.90
2022-09-25T15:55:06.931Z,16.80
2022-09-25T15:57:55.067Z,16.80
2022-09-25T16:01:12.354Z,16.70
2022-09-25T16:04:16.139Z,16.60
2022-09-25T16:07:20.493Z,16.50
2022-09-25T16:10:33.110Z,16.50
2022-09-25T16:13:22.009Z,16.30
2022-09-25T16:16:19.235Z,16.30
2022-09-25T16:19:27.684Z,16.10
2022-09-25T16:22:23.305Z,16.10
2022-09-25T16:25:21.974Z,16.10
2022-09-25T16:28:15.983Z,16.00
2022-09-25T16:31:04.719Z,16.00
2022-09-25T16:33:55.046Z,16.00
2022-09-25T16:36:44.492Z,16.10
2022-09-25T16:39:33.219Z,16.10
2022-09-25T16:42:31.014Z,16.00
2022-09-25T16:45:23.855Z,16.00
2022-09-25T16:48:30.175Z,16.00
2022-09-25T16:51:22.540Z,16.00
2022-09-25T16:54:11.249Z,15.90
2022-09-25T16:56:58.959Z,16.00
2022-09-25T16:59:45.557Z,16.00
2022-09-25T17:02:41.830Z,16.00
2022-09-25T17:05:31.477Z,16.00
2022-09-25T17:08:20.380Z,15.90
2022-09-25T17:11:07.103Z,15.90
2022-09-25T17:13:53.568Z,15.90
2022-09-25T17:16:39.960Z,15.90
2022-09-25T17:19:28.417Z,15.80
2022-09-25T17:22:14.656Z,15.70
2022-09-25T17:25:03.896Z,15.80
2022-09-25T17:27:50.907Z,15.70
2022-09-25T17:30:37.759Z,15.70
2022-09-25T17:33:24.705Z,15.60
2022-09-25T17:36:13.501Z,15.50
2022-09-25T17:39:00.085Z,15.50
2022-09-25T17:41:46.338Z,15.60
2022-09-25T17:44:32.893Z,15.50
2022-09-25T17:47:22.239Z,15.50
2022-09-25T17:50:08.954Z,15.50
2022-09-25T17:52:57.069Z,15.50
2022-09-25T17:55:43.918Z,15.50
2022-09-25T17:58:31.922Z,15.40
2022-09-25T18:01:22.080Z,15.40
2022-09-25T18:04:19.328Z,15.40
2022-09-25T18:07:06.437Z,15.30
2022-09-25T18:09:53.991Z,15.30
2022-09-25T18:12:40.691Z,15.20
2022-09-25T18:15:27.809Z,15.20
2022-09-25T18:18:14.104Z,15.20
2022-09-25T18:21:17.864Z,15.20
2022-09-25T18:24:04.965Z,15.20
2022-09-25T18:26:55.095Z,15.20
2022-09-25T18:29:41.811Z,15.10
2022-09-25T18:32:28.229Z,15.00
2022-09-25T18:35:15.723Z,14.90
2022-09-25T18:38:01.944Z,14.90
2022-09-25T18:40:48.295Z,15.10
2022-09-25T18:43:35.956Z,15.00
2022-09-25T18:46:22.854Z,15.00
2022-09-25T18:49:09.451Z,15.00
2022-09-25T18:51:56.355Z,15.10
2022-09-25T18:54:43.188Z,15.10
2022-09-25T18:57:30.031Z,15.10
2022-09-25T19:00:18.195Z,15.10
2022-09-25T19:03:05.150Z,15.00
2022-09-25T19:05:59.363Z,15.00
2022-09-25T19:08:45.816Z,15.00
2022-09-25T19:11:32.153Z,15.00
2022-09-25T19:14:19.847Z,15.00
2022-09-25T19:17:08.856Z,15.00
2022-09-25T19:19:55.224Z,15.00
2022-09-25T19:22:41.834Z,14.90
2022-09-25T19:25:28.034Z,14.90
2022-09-25T19:28:14.517Z,14.90
2022-09-25T19:31:02.708Z,14.80
2022-09-25T19:33:51.088Z,14.80
2022-09-25T19:36:37.791Z,14.80
2022-09-25T19:39:24.368Z,14.90
2022-09-25T19:42:10.575Z,14.90
2022-09-25T19:44:56.971Z,14.90
2022-09-25T19:47:43.311Z,14.90
2022-09-25T19:50:31.263Z,14.80
2022-09-25T19:53:18.820Z,14.80
2022-09-25T19:56:06.108Z,14.90
2022-09-25T19:58:52.428Z,14.80
2022-09-25T20:01:38.958Z,14.90
2022-09-25T20:04:25.224Z,14.80
2022-09-25T20:07:17.525Z,14.90
2022-09-25T20:10:03.911Z,14.80
2022-09-25T20:12:50.399Z,14.80
2022-09-25T20:15:36.826Z,14.80
2022-09-25T20:18:23.210Z,14.90
2022-09-25T20:21:10.297Z,14.90
2022-09-25T20:23:59.741Z,14.90
2022-09-25T20:26:46.347Z,14.90
2022-09-25T20:29:32.839Z,14.90
2022-09-25T20:32:19.209Z,14.90
2022-09-25T20:35:06.464Z,14.80
2022-09-25T20:37:52.808Z,14.80
2022-09-25T20:40:41.251Z,14.80
2022-09-25T20:43:28.191Z,14.80
2022-09-25T20:46:14.994Z,14.90
2022-09-25T20:49:02.266Z,14.90
2022-09-25T20:51:48.756Z,14.80
2022-09-25T20:54:35.303Z,14.80
2022-09-25T20:57:22.816Z,14.70
2022-09-25T21:00:13.370Z,14.70
2022-09-25T21:03:04.375Z,14.80
2022-09-25T21:05:50.884Z,14.60
2022-09-25T21:08:37.424Z,14.70
2022-09-25T21:11:25.065Z,14.80
2022-09-25T21:14:17.220Z,14.70
2022-09-25T21:17:03.904Z,14.70
2022-09-25T21:19:50.627Z,14.70
2022-09-25T21:22:36.803Z,14.70
2022-09-25T21:25:23.545Z,14.60
2022-09-25T21:28:09.780Z,14.70
2022-09-25T21:31:01.790Z,14.70
2022-09-25T21:33:48.806Z,14.60
2022-09-25T21:36:35.290Z,14.60
2022-09-25T21:39:21.580Z,14.60
2022-09-25T21:42:07.946Z,14.60
2022-09-25T21:44:54.251Z,14.50
2022-09-25T21:47:41.877Z,14.50
2022-09-25T21:50:28.118Z,14.50
2022-09-25T21:53:14.849Z,14.50
2022-09-25T21:56:02.364Z,14.50
2022-09-25T21:58:49.566Z,14.50
2022-09-25T22:01:36.388Z,14.50
2022-09-25T22:04:24.357Z,14.50
2022-09-25T22:07:10.587Z,14.50
2022-09-25T22:09:57.147Z,14.40
2022-09-25T22:12:43.430Z,14.40
2022-09-25T22:15:29.906Z,14.40
2022-09-25T22:18:16.213Z,14.40
2022-09-25T22:21:04.218Z,14.40
2022-09-25T22:23:50.414Z,14.40
2022-09-25T22:26:38.927Z,14.30
2022-09-25T22:29:25.809Z,14.30
2022-09-25T22:32:12.310Z,14.30
2022-09-25T22:34:58.530Z,14.40
2022-09-25T22:37:46.347Z,14.40
2022-09-25T22:40:32.495Z,14.30
2022-09-25T22:43:18.999Z,14.30
2022-09-25T22:46:05.967Z,14.30
2022-09-25T22:48:53.177Z,14.30
2022-09-25T22:51:39.772Z,14.20
2022-09-25T22:54:27.858Z,14.20
2022-09-25T22:57:14.079Z,14.20
2022-09-25T23:00:00.593Z,14.20
2022-09-25T23:02:47.046Z,14.20
2022-09-25T23:05:36.960Z,14.20
2022-09-25T23:08:23.703Z,14.20
2022-09-25T23:11:11.586Z,14.20
2022-09-25T23:13:59.665Z,14.20
2022-09-25T23:16:47.378Z,14.20
2022-09-25T23:19:34.198Z,14.20
2022-09-25T23:22:21.053Z,14.20
2022-09-25T23:25:07.951Z,14.20
2022-09-25T23:27:55.453Z,14.20
2022-09-25T23:30:42.221Z,14.10
2022-09-25T23:33:28.671Z,14.10
2022-09-25T23:36:18.047Z,14.10
2022-09-25T23:39:06.013Z,14.10
2022-09-25T23:41:52.519Z,14.10
2022-09-25T23:44:40.242Z,14.10
2022-09-25T23:47:26.695Z,14.10
2022-09-25T23:50:13.680Z,14.10
2022-09-25T23:53:00.014Z,14.10
2022-09-25T23:55:46.353Z,14.20
2022-09-25T23:58:33.522Z,14.10
